Time;durP1;ratioP1;P1;durP2;ratioP2;P2;SDS_P1;SDS_P2;PMS_P1;PMS_P2;Temp;Humidity;BMP_temperature;BMP_pressure;BME280_temperature;BME280_humidity;BME280_pressure;Samples;Min_cycle;Max_cycle;Signal;HPM_P1;HPM_P2
2022/10/01 00:01:45;;;;;;;10.98;8.40;;;12.50;99.90;;;;;;5047096;28;20069;-73
2022/10/01 00:04:10;;;;;;;9.68;8.30;;;12.40;99.90;;;;;;5028666;28;20045;-72
2022/10/01 00:06:36;;;;;;;12.02;7.45;;;12.40;99.90;;;;;;5044452;28;20053;-73
2022/10/01 00:09:02;;;;;;;10.32;7.50;;;12.30;99.90;;;;;;5047226;28;20096;-72
2022/10/01 00:11:28;;;;;;;8.82;7.90;;;12.30;99.90;;;;;;5045781;28;20131;-73
2022/10/01 00:13:53;;;;;;;10.00;7.72;;;12.20;99.90;;;;;;5044063;28;20063;-73
2022/10/01 00:16:22;;;;;;;9.48;8.30;;;12.30;99.90;;;;;;5044925;28;20072;-73
2022/10/01 00:18:49;;;;;;;8.95;7.38;;;12.30;99.90;;;;;;5045527;28;20045;-73
2022/10/01 00:21:18;;;;;;;10.05;8.00;;;12.30;99.90;;;;;;5045886;28;20391;-73
2022/10/01 00:23:44;;;;;;;10.73;8.30;;;12.30;99.90;;;;;;5044331;28;20041;-74
2022/10/01 00:26:16;;;;;;;8.80;7.90;;;12.20;99.90;;;;;;5044546;28;20335;-73
2022/10/01 00:28:44;;;;;;;9.07;7.72;;;12.20;99.90;;;;;;5043487;28;20077;-73
2022/10/01 00:31:10;;;;;;;10.05;9.05;;;12.20;99.90;;;;;;5044385;28;20104;-74
2022/10/01 00:33:37;;;;;;;8.98;8.07;;;12.30;99.90;;;;;;5043870;28;20061;-73
2022/10/01 00:36:08;;;;;;;10.07;8.02;;;12.20;99.90;;;;;;5046065;28;20045;-73
2022/10/01 00:38:35;;;;;;;9.27;8.00;;;12.10;99.90;;;;;;5042258;28;20037;-73
2022/10/01 00:41:01;;;;;;;9.20;8.30;;;12.10;99.90;;;;;;5043948;28;20068;-73
2022/10/01 00:43:32;;;;;;;10.10;8.95;;;12.20;99.90;;;;;;5044207;28;20042;-73
2022/10/01 00:46:05;;;;;;;10.65;8.90;;;12.20;99.90;;;;;;5044418;28;20119;-73
2022/10/01 00:48:37;;;;;;;9.35;8.27;;;12.20;99.90;;;;;;5044312;28;20064;-73
2022/10/01 00:51:05;;;;;;;10.85;9.00;;;12.20;99.90;;;;;;5044920;28;20038;-73
2022/10/01 00:53:31;;;;;;;9.07;7.90;;;12.10;99.90;;;;;;5027340;28;20125;-73
2022/10/01 00:55:58;;;;;;;9.98;8.75;;;12.10;99.90;;;;;;5045224;28;20045;-72
2022/10/01 00:58:25;;;;;;;9.45;8.13;;;12.10;99.90;;;;;;5044611;28;20053;-73
2022/10/01 01:00:53;;;;;;;12.10;8.75;;;12.00;99.90;;;;;;5043727;28;20037;-73
2022/10/01 01:03:19;;;;;;;9.38;8.38;;;12.10;99.90;;;;;;5044785;28;20056;-73
2022/10/01 01:05:46;;;;;;;9.70;7.55;;;12.00;99.90;;;;;;5043772;28;20045;-73
2022/10/01 01:08:13;;;;;;;9.27;7.95;;;12.10;99.90;;;;;;5045125;28;20068;-72
2022/10/01 01:10:51;;;;;;;9.27;7.75;;;12.00;99.90;;;;;;5043480;28;20084;-73
2022/10/01 01:13:32;;;;;;;9.20;8.27;;;12.10;99.90;;;;;;5044473;28;20065;-73
2022/10/01 01:16:11;;;;;;;10.07;8.27;;;12.10;99.90;;;;;;5021788;28;20128;-73
2022/10/01 01:18:59;;;;;;;9.48;8.57;;;12.10;99.90;;;;;;5044945;28;20059;-73
2022/10/01 01:21:31;;;;;;;9.25;8.30;;;12.00;99.90;;;;;;5043580;28;20049;-72
2022/10/01 01:24:26;;;;;;;9.75;8.15;;;12.10;99.90;;;;;;5038229;28;20050;-72
2022/10/01 01:27:12;;;;;;;9.13;8.13;;;12.10;99.90;;;;;;5043015;28;20049;-73
2022/10/01 01:29:51;;;;;;;11.32;9.15;;;12.00;99.90;;;;;;5042906;28;20196;-73
2022/10/01 01:32:25;;;;;;;10.03;8.93;;;12.00;99.90;;;;;;5045119;28;20041;-72
2022/10/01 01:34:54;;;;;;;11.32;8.93;;;11.90;99.90;;;;;;5043165;28;20049;-72
2022/10/01 01:37:23;;;;;;;10.50;8.80;;;11.90;99.90;;;;;;5043084;28;20048;-72
2022/10/01 01:39:53;;;;;;;11.43;9.23;;;11.90;99.90;;;;;;5041880;28;20045;-72
2022/10/01 01:42:40;;;;;;;13.25;9.82;;;11.90;99.90;;;;;;5044009;28;20045;-72
2022/10/01 01:45:10;;;;;;;10.23;8.82;;;12.00;99.90;;;;;;5045302;28;20047;-72
2022/10/01 01:47:38;;;;;;;11.25;9.15;;;12.00;99.90;;;;;;5041642;28;20121;-72
2022/10/01 01:50:07;;;;;;;9.48;8.40;;;12.00;99.90;;;;;;5043018;28;20037;-72
2022/10/01 01:52:33;;;;;;;10.10;9.10;;;11.90;99.90;;;;;;5042499;28;20053;-72
2022/10/01 01:55:07;;;;;;;9.32;8.40;;;11.80;99.90;;;;;;5042904;28;20061;-72
2022/10/01 01:57:38;;;;;;;10.13;8.38;;;11.80;99.90;;;;;;5043905;28;22831;-72
2022/10/01 02:00:04;;;;;;;10.25;8.63;;;11.90;99.90;;;;;;5043836;28;20041;-72
2022/10/01 02:02:32;;;;;;;9.95;8.95;;;11.80;99.90;;;;;;5044051;28;20075;-72
2022/10/01 02:05:06;;;;;;;10.10;9.00;;;11.90;99.90;;;;;;5043534;28;20204;-72
2022/10/01 02:07:51;;;;;;;12.57;9.23;;;11.80;99.90;;;;;;5047429;28;20045;-72
2022/10/01 02:10:29;;;;;;;11.02;9.00;;;11.80;99.90;;;;;;5042878;28;20417;-72
2022/10/01 02:13:23;;;;;;;10.75;9.57;;;11.80;99.90;;;;;;5042434;28;20057;-74
2022/10/01 02:16:03;;;;;;;9.55;8.65;;;11.80;99.90;;;;;;5041391;28;20061;-72
2022/10/01 02:18:32;;;;;;;9.77;8.77;;;11.60;99.90;;;;;;5026024;28;20548;-72
2022/10/01 02:21:08;;;;;;;9.60;8.60;;;11.80;99.90;;;;;;5042495;28;20077;-73
2022/10/01 02:23:46;;;;;;;9.93;8.90;;;11.70;99.90;;;;;;5043538;28;20159;-72
2022/10/01 02:26:17;;;;;;;9.65;8.65;;;11.70;99.90;;;;;;5040298;28;20045;-72
2022/10/01 02:28:44;;;;;;;9.15;8.23;;;11.70;99.90;;;;;;5043814;28;20583;-72
2022/10/01 02:31:11;;;;;;;9.30;8.30;;;11.60;99.90;;;;;;5043625;28;20045;-73
2022/10/01 02:33:38;;;;;;;10.23;8.52;;;11.60;99.90;;;;;;5042204;28;20124;-73
2022/10/01 02:36:07;;;;;;;9.75;8.75;;;11.60;99.90;;;;;;5042337;28;20129;-73
2022/10/01 02:38:36;;;;;;;10.52;8.73;;;11.60;99.90;;;;;;5043295;28;20081;-72
2022/10/01 02:41:07;;;;;;;9.65;8.35;;;11.60;99.90;;;;;;5042795;28;20045;-73
2022/10/01 02:43:46;;;;;;;9.45;8.45;;;11.60;99.90;;;;;;5042403;28;20045;-72
2022/10/01 02:46:57;;;;;;;9.93;8.93;;;11.60;99.90;;;;;;5043378;28;20046;-73
2022/10/01 02:49:23;;;;;;;11.68;8.82;;;11.60;99.90;;;;;;5035604;28;20087;-73
2022/10/01 02:52:01;;;;;;;9.18;8.30;;;11.60;99.90;;;;;;5024391;28;20101;-72
2022/10/01 02:54:34;;;;;;;8.63;7.72;;;11.50;99.90;;;;;;5024525;28;20137;-73
2022/10/01 02:59:44;;;;;;;10.27;7.60;;;11.50;99.90;;;;;;5038891;28;20160;-72
2022/10/01 03:02:10;;;;;;;8.85;7.95;;;11.60;99.90;;;;;;5046137;28;20045;-72
2022/10/01 03:04:37;;;;;;;8.90;8.02;;;11.50;99.90;;;;;;5046133;28;20042;-72
2022/10/01 03:07:03;;;;;;;8.07;7.05;;;11.60;99.90;;;;;;5044905;28;20095;-72
2022/10/01 03:09:33;;;;;;;9.45;7.85;;;11.60;99.90;;;;;;5038270;28;20104;-72
2022/10/01 03:12:00;;;;;;;8.23;6.90;;;11.60;99.90;;;;;;5028091;28;20072;-72
2022/10/01 03:14:27;;;;;;;8.60;7.80;;;11.60;99.90;;;;;;5043891;28;20057;-72
2022/10/01 03:16:53;;;;;;;8.65;7.25;;;11.60;99.90;;;;;;5044498;28;20038;-72
2022/10/01 03:19:19;;;;;;;8.07;7.28;;;11.60;99.90;;;;;;5026671;28;20058;-72
2022/10/01 03:21:46;;;;;;;7.80;6.85;;;11.50;99.90;;;;;;5045861;28;20041;-72
2022/10/01 03:24:11;;;;;;;9.93;6.53;;;11.60;99.90;;;;;;5043652;28;20045;-73
2022/10/01 03:26:37;;;;;;;8.48;6.40;;;11.70;99.90;;;;;;5047199;28;20071;-72
2022/10/01 03:29:04;;;;;;;7.93;6.00;;;11.70;99.90;;;;;;5045590;28;20068;-72
2022/10/01 03:31:29;;;;;;;8.95;7.20;;;11.70;99.90;;;;;;5045375;28;20061;-72
2022/10/01 03:33:59;;;;;;;7.07;6.22;;;11.70;99.90;;;;;;5045562;28;20053;-72
2022/10/01 03:36:28;;;;;;;9.15;6.38;;;11.60;99.90;;;;;;5046227;28;20049;-73
2022/10/01 03:38:54;;;;;;;6.80;5.72;;;11.60;99.90;;;;;;5045723;28;20041;-73
2022/10/01 03:41:21;;;;;;;6.70;6.00;;;11.60;99.90;;;;;;5045575;28;20107;-72
2022/10/01 03:43:46;;;;;;;6.47;5.88;;;11.60;99.90;;;;;;5046148;28;20056;-73
2022/10/01 03:46:12;;;;;;;6.47;5.30;;;11.60;99.90;;;;;;5047325;28;20097;-73
2022/10/01 03:48:38;;;;;;;6.35;5.45;;;11.60;99.90;;;;;;5046751;28;20200;-72
2022/10/01 03:51:04;;;;;;;6.63;5.47;;;11.60;99.90;;;;;;5045698;28;20041;-72
2022/10/01 03:53:30;;;;;;;6.15;5.13;;;11.60;99.90;;;;;;5044663;28;20041;-73
2022/10/01 03:55:57;;;;;;;6.00;5.40;;;11.50;99.90;;;;;;5044813;28;20872;-73
2022/10/01 03:58:23;;;;;;;5.55;5.05;;;11.60;99.90;;;;;;5044963;28;20045;-73
2022/10/01 04:00:49;;;;;;;6.05;5.35;;;11.50;99.90;;;;;;5047379;28;20060;-73
2022/10/01 04:03:16;;;;;;;6.07;5.18;;;11.50;99.90;;;;;;5047830;28;20053;-73
2022/10/01 04:05:43;;;;;;;6.30;5.05;;;11.60;99.90;;;;;;5044976;28;20051;-73
2022/10/01 04:08:09;;;;;;;5.15;4.60;;;11.50;99.90;;;;;;5043340;28;20041;-73
2022/10/01 04:10:35;;;;;;;5.03;4.53;;;11.50;99.90;;;;;;5044615;28;20116;-73
2022/10/01 04:13:01;;;;;;;6.35;4.43;;;11.60;99.90;;;;;;5046611;28;20077;-72
2022/10/01 04:15:27;;;;;;;4.95;4.55;;;11.50;99.90;;;;;;5045882;28;20041;-73
2022/10/01 04:17:52;;;;;;;6.47;4.30;;;11.40;99.90;;;;;;5044605;28;20402;-72
2022/10/01 04:20:18;;;;;;;5.30;4.40;;;11.50;99.90;;;;;;5044315;28;20057;-72
2022/10/01 04:22:45;;;;;;;5.85;4.70;;;11.40;99.90;;;;;;5045937;28;20041;-73
2022/10/01 04:25:11;;;;;;;4.68;4.18;;;11.50;99.90;;;;;;5045292;28;20052;-72
2022/10/01 04:27:41;;;;;;;5.22;4.07;;;11.50;99.90;;;;;;5044665;28;20079;-72
2022/10/01 04:30:09;;;;;;;4.72;4.32;;;11.60;99.90;;;;;;5045437;28;20100;-72
2022/10/01 04:32:35;;;;;;;5.05;3.90;;;11.60;99.90;;;;;;5045130;28;20504;-73
2022/10/01 04:35:03;;;;;;;4.85;4.22;;;11.50;99.90;;;;;;5045386;28;20052;-72
2022/10/01 04:37:29;;;;;;;4.88;4.05;;;11.60;99.90;;;;;;5045440;28;20053;-73
2022/10/01 04:39:55;;;;;;;4.90;4.40;;;11.70;99.90;;;;;;5045241;28;20049;-73
2022/10/01 04:42:21;;;;;;;4.75;4.25;;;11.60;99.90;;;;;;5044760;28;20045;-72
2022/10/01 04:44:47;;;;;;;4.72;4.22;;;11.60;99.90;;;;;;5045259;28;20073;-72
2022/10/01 04:47:13;;;;;;;4.78;4.38;;;11.60;99.90;;;;;;5044411;28;20068;-72
2022/10/01 04:49:38;;;;;;;6.50;4.45;;;11.60;99.90;;;;;;5027555;28;20045;-72
2022/10/01 04:52:04;;;;;;;4.72;4.25;;;11.50;99.90;;;;;;5046824;28;20108;-72
2022/10/01 04:54:30;;;;;;;4.93;4.03;;;11.60;99.90;;;;;;5044762;28;20044;-73
2022/10/01 04:56:59;;;;;;;6.38;4.57;;;11.60;99.90;;;;;;5043716;28;20081;-73
2022/10/01 04:59:25;;;;;;;4.50;3.83;;;11.60;99.90;;;;;;5045746;28;20048;-73
2022/10/01 05:01:51;;;;;;;5.28;3.75;;;11.50;99.90;;;;;;5043994;28;20041;-73
2022/10/01 05:04:17;;;;;;;4.10;3.70;;;11.60;99.90;;;;;;5043734;28;20045;-73
2022/10/01 05:06:43;;;;;;;4.32;3.60;;;11.70;99.90;;;;;;5044955;28;20072;-72
2022/10/01 05:09:08;;;;;;;4.47;4.07;;;11.60;99.90;;;;;;5045172;28;20050;-72
2022/10/01 05:11:34;;;;;;;4.65;4.15;;;11.70;99.90;;;;;;5044333;28;20053;-73
2022/10/01 05:14:00;;;;;;;4.63;3.92;;;11.60;99.90;;;;;;5026682;28;20051;-73
2022/10/01 05:16:26;;;;;;;4.78;4.28;;;11.60;99.90;;;;;;5027030;28;20048;-73
2022/10/01 05:18:53;;;;;;;17.30;6.75;;;11.70;99.90;;;;;;5044341;28;20045;-73
2022/10/01 05:21:19;;;;;;;4.45;3.80;;;11.70;99.90;;;;;;5043648;28;20057;-72
2022/10/01 05:23:45;;;;;;;4.43;4.00;;;11.70;99.90;;;;;;5043702;28;20064;-73
2022/10/01 05:26:11;;;;;;;4.80;4.35;;;11.70;99.90;;;;;;5044117;28;20045;-72
2022/10/01 05:28:43;;;;;;;5.68;4.80;;;11.70;99.90;;;;;;5043809;28;20042;-72
2022/10/01 05:31:10;;;;;;;4.10;3.70;;;11.70;99.90;;;;;;5044613;28;20105;-72
2022/10/01 05:33:36;;;;;;;4.63;4.13;;;11.60;99.90;;;;;;5043321;28;20080;-73
2022/10/01 05:36:05;;;;;;;4.65;4.25;;;11.70;99.90;;;;;;5026819;28;20034;-72
2022/10/01 05:38:35;;;;;;;4.78;4.07;;;11.70;99.90;;;;;;5043923;28;20041;-73
2022/10/01 05:41:02;;;;;;;5.28;3.53;;;11.70;99.90;;;;;;5044245;28;20044;-73
2022/10/01 05:43:28;;;;;;;4.30;3.65;;;11.80;99.90;;;;;;5045512;28;20724;-72
2022/10/01 05:45:54;;;;;;;4.70;4.20;;;11.80;99.90;;;;;;5043620;28;20041;-73
2022/10/01 05:48:20;;;;;;;5.80;4.55;;;11.80;99.90;;;;;;5043848;28;20048;-72
2022/10/01 05:50:46;;;;;;;4.55;4.00;;;11.90;99.90;;;;;;5027492;28;20144;-73
2022/10/01 05:53:14;;;;;;;5.65;5.00;;;11.70;99.90;;;;;;5042594;28;20493;-72
2022/10/01 05:55:40;;;;;;;5.57;4.80;;;11.80;99.90;;;;;;5043221;28;20037;-73
2022/10/01 05:58:09;;;;;;;5.65;5.03;;;11.80;99.90;;;;;;5043178;28;20108;-73
2022/10/01 06:00:36;;;;;;;5.78;5.15;;;12.00;99.90;;;;;;5044071;28;20046;-73
2022/10/01 06:03:03;;;;;;;5.95;5.35;;;12.00;99.90;;;;;;5043770;28;20057;-73
2022/10/01 06:05:30;;;;;;;6.93;5.28;;;11.90;99.90;;;;;;5042530;28;20084;-73
2022/10/01 06:07:57;;;;;;;6.95;5.82;;;12.00;99.90;;;;;;5041052;28;20064;-69
2022/10/01 06:10:24;;;;;;;6.07;5.47;;;12.10;99.90;;;;;;5041268;28;20436;-72
2022/10/01 06:12:50;;;;;;;7.72;5.90;;;12.00;99.90;;;;;;5044507;28;20053;-72
2022/10/01 06:15:16;;;;;;;6.65;5.63;;;12.00;99.90;;;;;;5042457;28;20052;-72
2022/10/01 06:17:44;;;;;;;5.93;5.43;;;12.10;99.90;;;;;;5042239;28;20048;-73
2022/10/01 06:20:18;;;;;;;6.82;6.03;;;12.10;99.90;;;;;;5025772;28;20045;-74
2022/10/01 06:22:51;;;;;;;6.90;5.65;;;12.00;99.90;;;;;;5025673;28;20103;-73
2022/10/01 06:25:17;;;;;;;6.90;6.25;;;12.20;99.90;;;;;;5025945;28;20045;-72
2022/10/01 06:27:42;;;;;;;9.95;6.47;;;12.20;99.90;;;;;;5041634;28;20133;-72
2022/10/01 06:30:09;;;;;;;8.40;6.63;;;12.20;99.90;;;;;;5026055;28;20124;-72
2022/10/01 06:32:35;;;;;;;9.30;7.13;;;12.20;99.90;;;;;;5041343;28;20045;-74
2022/10/01 06:35:01;;;;;;;8.20;7.43;;;12.20;99.90;;;;;;5043202;28;20558;-73
2022/10/01 06:37:27;;;;;;;8.05;7.30;;;12.20;99.90;;;;;;5026249;28;20089;-73
2022/10/01 06:39:54;;;;;;;9.13;7.22;;;12.20;99.90;;;;;;5042294;28;20038;-72
2022/10/01 06:42:21;;;;;;;8.73;7.40;;;12.30;99.90;;;;;;5043428;28;20080;-73
2022/10/01 06:44:46;;;;;;;8.18;7.22;;;12.40;99.90;;;;;;5042832;28;20045;-73
2022/10/01 06:47:12;;;;;;;9.70;7.97;;;12.40;99.90;;;;;;5023185;28;20042;-74
2022/10/01 06:49:38;;;;;;;11.15;7.78;;;12.30;99.90;;;;;;5043057;28;20050;-74
2022/10/01 06:54:47;;;;;;;9.48;8.55;;;12.40;99.90;;;;;;5028105;28;20088;-76
2022/10/01 06:57:13;;;;;;;9.45;8.55;;;12.50;99.90;;;;;;5041476;28;20053;-74
2022/10/01 06:59:39;;;;;;;11.10;9.40;;;12.60;99.90;;;;;;5021143;28;20049;-72
2022/10/01 07:02:04;;;;;;;17.17;9.63;;;12.70;99.90;;;;;;5043045;28;20060;-75
2022/10/01 07:04:30;;;;;;;10.50;9.48;;;12.70;99.90;;;;;;5036061;28;20046;-73
2022/10/01 07:06:56;;;;;;;10.80;8.38;;;12.70;99.90;;;;;;5043627;28;20047;-74
2022/10/01 07:09:25;;;;;;;10.48;9.38;;;12.70;99.90;;;;;;5026181;28;20520;-73
2022/10/01 07:11:52;;;;;;;12.55;10.20;;;12.70;99.90;;;;;;5043640;28;20071;-73
2022/10/01 07:14:20;;;;;;;11.07;9.98;;;12.60;99.90;;;;;;5042174;28;20063;-72
2022/10/01 07:16:45;;;;;;;12.15;10.60;;;12.60;99.90;;;;;;5038238;28;20046;-72
2022/10/01 07:19:11;;;;;;;14.65;10.77;;;12.60;99.90;;;;;;5035858;28;20114;-73
2022/10/01 07:21:37;;;;;;;13.27;11.07;;;12.60;99.90;;;;;;5039433;28;20053;-72
2022/10/01 07:24:03;;;;;;;15.05;11.32;;;12.80;99.90;;;;;;5041867;28;20041;-72
2022/10/01 07:26:29;;;;;;;16.92;12.00;;;12.70;99.90;;;;;;5029374;28;20056;-72
2022/10/01 07:28:54;;;;;;;13.68;11.25;;;12.80;99.90;;;;;;5039243;28;20124;-71
2022/10/01 07:31:20;;;;;;;16.65;11.20;;;12.90;99.90;;;;;;5035098;28;20049;-71
2022/10/01 07:33:47;;;;;;;13.40;11.25;;;12.80;99.90;;;;;;5034313;28;20504;-68
2022/10/01 07:36:13;;;;;;;12.98;8.75;;;12.80;99.90;;;;;;5041770;28;20100;-71
2022/10/01 07:38:39;;;;;;;12.35;9.85;;;12.90;99.90;;;;;;5038109;28;20099;-71
2022/10/01 07:41:05;;;;;;;10.82;9.52;;;12.80;99.90;;;;;;5041039;28;20113;-71
2022/10/01 07:43:31;;;;;;;13.32;9.52;;;12.80;99.90;;;;;;5046713;28;20080;-70
2022/10/01 07:45:58;;;;;;;12.95;9.65;;;12.80;99.90;;;;;;5046605;28;20056;-71
2022/10/01 07:48:25;;;;;;;11.90;9.65;;;12.80;99.90;;;;;;5030619;28;20053;-71
2022/10/01 07:50:51;;;;;;;14.95;11.02;;;12.90;99.90;;;;;;5045661;28;20049;-71
2022/10/01 07:53:18;;;;;;;16.75;11.85;;;12.90;99.90;;;;;;5046194;28;20060;-70
2022/10/01 07:55:44;;;;;;;17.15;12.85;;;13.00;99.90;;;;;;5045296;28;20129;-70
2022/10/01 07:58:10;;;;;;;15.52;11.30;;;13.10;99.90;;;;;;5022700;28;20041;-70
2022/10/01 08:00:37;;;;;;;13.73;10.80;;;13.30;99.90;;;;;;5044685;28;20095;-70
2022/10/01 08:03:03;;;;;;;14.48;10.10;;;13.20;99.90;;;;;;5044905;28;20052;-70
2022/10/01 08:05:31;;;;;;;15.75;9.27;;;13.30;99.90;;;;;;5027898;28;20049;-69
2022/10/01 08:08:03;;;;;;;12.75;9.05;;;13.40;99.90;;;;;;5045654;28;20048;-70
2022/10/01 08:10:34;;;;;;;19.17;10.02;;;13.50;99.90;;;;;;5044123;28;20081;-70
2022/10/01 08:13:07;;;;;;;11.32;8.32;;;13.60;99.90;;;;;;5044380;28;20117;-70
2022/10/01 08:15:33;;;;;;;12.52;9.38;;;13.60;99.90;;;;;;5044021;28;20528;-69
2022/10/01 08:18:03;;;;;;;11.50;7.28;;;13.70;99.90;;;;;;5044821;28;20502;-70
2022/10/01 08:20:29;;;;;;;9.82;7.55;;;13.60;99.90;;;;;;5044316;28;20045;-70
2022/10/01 08:23:21;;;;;;;9.13;6.75;;;13.50;99.90;;;;;;5038345;28;20052;-70
2022/10/01 08:25:47;;;;;;;12.68;6.72;;;13.60;99.90;;;;;;5041651;28;20107;-69
2022/10/01 08:28:13;;;;;;;12.63;6.68;;;13.60;99.90;;;;;;5045056;28;20057;-69
2022/10/01 08:30:40;;;;;;;11.65;6.65;;;13.70;99.90;;;;;;5045568;28;20034;-69
2022/10/01 08:33:09;;;;;;;10.73;6.65;;;13.70;99.90;;;;;;5045463;28;20053;-69
2022/10/01 08:35:38;;;;;;;10.10;6.53;;;13.90;99.90;;;;;;5043871;28;20448;-72
2022/10/01 08:38:05;;;;;;;13.32;6.63;;;13.80;99.90;;;;;;5044547;28;20049;-73
2022/10/01 08:40:41;;;;;;;11.88;6.78;;;14.00;99.90;;;;;;5041598;28;20069;-72
2022/10/01 08:43:24;;;;;;;12.85;6.25;;;14.10;99.90;;;;;;5043852;28;20075;-72
2022/10/01 08:45:57;;;;;;;14.05;6.95;;;14.10;99.90;;;;;;5038790;28;20041;-71
2022/10/01 08:48:43;;;;;;;11.05;5.68;;;14.30;99.90;;;;;;5041958;28;20073;-71
2022/10/01 08:51:20;;;;;;;12.60;5.45;;;14.40;99.90;;;;;;5041629;28;20072;-72
2022/10/01 08:53:59;;;;;;;16.80;6.32;;;14.50;99.90;;;;;;5043010;28;20071;-72
2022/10/01 08:56:35;;;;;;;15.82;6.35;;;14.50;99.90;;;;;;5043307;28;20041;-71
2022/10/01 08:59:27;;;;;;;14.48;4.45;;;14.60;99.90;;;;;;5040507;28;20084;-71
2022/10/01 09:01:55;;;;;;;10.60;3.97;;;14.80;99.90;;;;;;5020185;28;20049;-71
2022/10/01 09:04:20;;;;;;;11.68;4.07;;;14.80;99.90;;;;;;5043629;28;20429;-72
2022/10/01 09:06:55;;;;;;;16.90;4.68;;;14.90;99.90;;;;;;5027101;28;20069;-71
2022/10/01 09:09:34;;;;;;;14.85;3.53;;;15.10;99.90;;;;;;5041353;28;20055;-71
2022/10/01 09:12:15;;;;;;;12.05;3.63;;;15.20;99.90;;;;;;5043072;28;20057;-74
2022/10/01 09:14:53;;;;;;;8.23;2.90;;;15.30;99.90;;;;;;5010630;28;20084;-70
2022/10/01 09:18:10;;;;;;;11.00;3.42;;;15.30;99.90;;;;;;5022809;28;20045;-70
2022/10/01 09:20:42;;;;;;;12.45;3.20;;;15.30;99.90;;;;;;4968199;28;20201;-72
2022/10/01 09:23:35;;;;;;;12.90;3.33;;;15.30;99.90;;;;;;4984929;28;20058;-70
2022/10/01 09:26:01;;;;;;;8.18;2.33;;;15.40;99.90;;;;;;4984278;28;20057;-71
2022/10/01 09:28:30;;;;;;;14.93;2.72;;;15.50;99.90;;;;;;4970495;28;20052;-70
2022/10/01 09:31:18;;;;;;;12.43;2.58;;;15.50;99.90;;;;;;4982523;28;20050;-71
2022/10/01 09:34:00;;;;;;;10.30;2.35;;;15.50;99.90;;;;;;4988219;28;20078;-71
2022/10/01 09:36:37;;;;;;;9.73;2.53;;;15.70;99.90;;;;;;4979756;28;20046;-73
2022/10/01 09:39:16;;;;;;;10.00;2.47;;;15.90;99.90;;;;;;4969279;28;20108;-73
2022/10/01 09:41:44;;;;;;;9.95;2.15;;;16.00;99.90;;;;;;4979168;28;20077;-73
2022/10/01 09:44:17;;;;;;;8.13;2.40;;;15.90;99.90;;;;;;4985469;28;20545;-73
2022/10/01 09:46:44;;;;;;;9.65;2.28;;;16.00;99.90;;;;;;4979031;28;20444;-73
2022/10/01 09:49:32;;;;;;;8.85;2.30;;;15.90;99.90;;;;;;4979301;28;20637;-73
2022/10/01 09:52:11;;;;;;;10.15;2.47;;;16.00;99.90;;;;;;4997794;28;20385;-73
2022/10/01 09:54:47;;;;;;;7.50;2.00;;;16.10;99.90;;;;;;4993921;28;20443;-73
2022/10/01 09:57:23;;;;;;;8.00;1.92;;;16.00;99.90;;;;;;5033117;28;20178;-73
2022/10/01 10:00:03;;;;;;;3.92;1.70;;;16.00;99.90;;;;;;5029516;28;20057;-74
2022/10/01 10:02:42;;;;;;;8.85;2.28;;;15.90;99.90;;;;;;5038016;28;20086;-67
2022/10/01 10:05:13;;;;;;;9.35;2.08;;;15.70;99.90;;;;;;5034496;28;20049;-69
2022/10/01 10:07:44;;;;;;;6.05;1.90;;;15.50;99.90;;;;;;5033785;28;20048;-69
2022/10/01 10:10:38;;;;;;;7.03;1.75;;;15.40;99.90;;;;;;5020223;28;20041;-68
2022/10/01 10:13:10;;;;;;;7.75;1.42;;;15.40;99.90;;;;;;5033908;28;20049;-68
2022/10/01 10:15:49;;;;;;;4.82;1.60;;;15.30;99.90;;;;;;4991301;28;20060;-67
2022/10/01 10:18:16;;;;;;;8.43;1.53;;;15.20;99.90;;;;;;5026553;28;20056;-69
2022/10/01 10:20:51;;;;;;;5.85;1.35;;;15.10;99.90;;;;;;5025875;28;20049;-69
2022/10/01 10:23:22;;;;;;;4.32;1.20;;;15.00;99.90;;;;;;5028110;28;20041;-69
2022/10/01 10:26:02;;;;;;;4.22;1.13;;;14.90;99.90;;;;;;5027483;28;20038;-69
2022/10/01 10:28:46;;;;;;;6.40;1.42;;;14.90;99.90;;;;;;5023367;28;20058;-68
2022/10/01 10:31:19;;;;;;;3.67;1.00;;;14.90;99.90;;;;;;5036317;28;20045;-70
2022/10/01 10:33:52;;;;;;;4.07;1.35;;;15.00;99.90;;;;;;5019334;28;20049;-70
2022/10/01 10:36:19;;;;;;;5.35;1.50;;;15.00;99.90;;;;;;5044304;28;20140;-72
2022/10/01 10:38:52;;;;;;;3.40;1.08;;;14.90;99.90;;;;;;5030041;28;20124;-71
2022/10/01 10:41:25;;;;;;;3.38;1.33;;;14.90;99.90;;;;;;5032331;28;20053;-71
2022/10/01 10:43:55;;;;;;;7.38;1.73;;;14.90;99.90;;;;;;5026964;28;20045;-67
2022/10/01 10:46:27;;;;;;;6.07;1.10;;;14.70;99.90;;;;;;5036056;28;20048;-70
2022/10/01 10:49:03;;;;;;;5.93;1.30;;;14.70;99.90;;;;;;5031399;28;20080;-69
2022/10/01 10:51:41;;;;;;;4.55;1.50;;;14.60;99.90;;;;;;5037204;28;20049;-69
2022/10/01 10:54:29;;;;;;;7.07;1.40;;;14.50;99.90;;;;;;5031490;28;20072;-71
2022/10/01 10:57:01;;;;;;;3.80;1.30;;;14.40;99.90;;;;;;5028213;28;20109;-69
2022/10/01 10:59:30;;;;;;;6.55;1.95;;;14.20;99.90;;;;;;5028589;28;20052;-69
2022/10/01 11:01:57;;;;;;;12.35;1.88;;;14.20;99.90;;;;;;5035429;28;20045;-71
2022/10/01 11:04:41;;;;;;;10.02;1.75;;;14.00;99.90;;;;;;5024499;28;20053;-71
2022/10/01 11:07:09;;;;;;;6.35;2.58;;;13.70;99.90;;;;;;5030149;28;20043;-74
2022/10/01 11:10:24;;;;;;;6.95;1.45;;;13.60;99.90;;;;;;5029278;28;20108;-72
2022/10/01 11:13:26;;;;;;;4.28;1.17;;;13.30;99.90;;;;;;5035183;28;20457;-73
2022/10/01 11:16:16;;;;;;;8.32;1.52;;;13.30;99.90;;;;;;4988945;28;20061;-71
2022/10/01 11:18:55;;;;;;;4.93;1.52;;;13.20;99.90;;;;;;5012734;28;20072;-70
2022/10/01 11:21:40;;;;;;;7.15;1.67;;;13.20;99.90;;;;;;5046216;28;20129;-72
2022/10/01 11:24:37;;;;;;;4.05;1.23;;;13.20;99.90;;;;;;5033421;28;20045;-69
2022/10/01 11:27:45;;;;;;;7.38;1.40;;;13.30;99.90;;;;;;5042078;28;20041;-72
2022/10/01 11:30:19;;;;;;;8.60;1.48;;;13.30;99.90;;;;;;5015296;28;20057;-73
2022/10/01 11:33:09;;;;;;;4.28;1.30;;;13.60;99.90;;;;;;5021288;28;20041;-74
2022/10/01 11:35:54;;;;;;;7.22;1.30;;;13.60;99.90;;;;;;5047487;28;20064;-70
2022/10/01 11:38:41;;;;;;;7.78;1.25;;;13.60;99.90;;;;;;5040384;28;20069;-80
2022/10/01 11:41:25;;;;;;;8.95;1.67;;;13.70;99.90;;;;;;5014779;28;20119;-78
2022/10/01 11:44:00;;;;;;;4.50;1.25;;;13.80;99.90;;;;;;5029562;28;20115;-77
2022/10/01 11:46:53;;;;;;;6.90;1.52;;;13.90;99.90;;;;;;5019848;28;20053;-78
2022/10/01 11:49:45;;;;;;;7.68;1.95;;;14.00;99.90;;;;;;5034184;28;20083;-79
2022/10/01 11:52:42;;;;;;;11.30;1.80;;;14.20;99.90;;;;;;5047261;28;20164;-81
2022/10/01 12:01:27;;;;;;;6.15;1.75;;;14.60;99.90;;;;;;5014701;28;20068;-80
2022/10/01 12:03:52;;;;;;;5.60;1.40;;;15.00;99.90;;;;;;5027824;28;20046;-78
2022/10/01 12:06:22;;;;;;;10.20;2.10;;;15.20;99.90;;;;;;5013141;28;20045;-77
2022/10/01 12:08:57;;;;;;;11.07;1.98;;;15.40;99.90;;;;;;5030322;28;20077;-76
2022/10/01 12:11:35;;;;;;;8.40;1.90;;;15.40;99.90;;;;;;5037417;28;20057;-76
2022/10/01 12:14:09;;;;;;;10.77;1.67;;;15.50;99.90;;;;;;5030859;28;20045;-76
2022/10/01 12:17:03;;;;;;;11.48;2.92;;;15.60;99.90;;;;;;5023485;28;20080;-77
2022/10/01 12:19:36;;;;;;;8.52;2.33;;;15.70;99.90;;;;;;5019670;28;20061;-77
2022/10/01 12:22:20;;;;;;;8.40;2.17;;;15.90;99.90;;;;;;5039074;28;20053;-77
2022/10/01 12:24:47;;;;;;;6.78;1.60;;;16.00;99.90;;;;;;5017129;28;20145;-70
2022/10/01 12:27:34;;;;;;;11.70;2.58;;;15.80;99.90;;;;;;5046552;28;20110;-80
2022/10/01 12:30:05;;;;;;;11.15;2.65;;;15.80;99.90;;;;;;5020474;28;20053;-78
2022/10/01 12:32:56;;;;;;;12.15;2.58;;;16.10;99.90;;;;;;5039078;28;20046;-74
2022/10/01 12:35:48;;;;;;;10.25;2.30;;;16.30;99.90;;;;;;5037434;28;20102;-71
2022/10/01 12:38:38;;;;;;;11.43;1.95;;;16.20;99.90;;;;;;5032809;28;20042;-73
2022/10/01 12:41:22;;;;;;;;;;;16.20;99.90;;;;;;5031268;28;20049;-72
2022/10/01 12:44:19;;;;;;;11.70;3.35;;;16.20;99.90;;;;;;5033190;28;20149;-73
2022/10/01 12:46:56;;;;;;;9.52;1.92;;;16.00;99.90;;;;;;5011871;28;20580;-72
2022/10/01 12:49:22;;;;;;;9.43;1.70;;;15.50;99.90;;;;;;5018299;28;20043;-72
2022/10/01 12:52:00;;;;;;;5.68;1.30;;;15.40;99.90;;;;;;5026411;28;20246;-67
2022/10/01 12:54:34;;;;;;;6.38;1.90;;;15.80;99.90;;;;;;5033832;28;20061;-69
2022/10/01 12:57:08;;;;;;;8.63;1.80;;;16.40;99.90;;;;;;5010786;28;20538;-69
2022/10/01 12:59:45;;;;;;;8.43;1.83;;;16.80;99.90;;;;;;5036552;28;20049;-68
2022/10/01 13:02:31;;;;;;;6.38;1.50;;;17.30;99.90;;;;;;5022010;28;20104;-69
2022/10/01 13:05:28;;;;;;;7.28;1.85;;;17.80;99.90;;;;;;5019174;28;20140;-68
2022/10/01 13:08:14;;;;;;;9.38;1.98;;;17.80;99.90;;;;;;5027511;28;20054;-68
2022/10/01 13:11:07;;;;;;;6.28;2.03;;;18.00;99.90;;;;;;5025260;28;20056;-68
2022/10/01 13:13:33;;;;;;;8.60;2.35;;;18.80;99.90;;;;;;5023823;28;20054;-68
2022/10/01 13:16:19;;;;;;;7.85;2.08;;;19.40;99.90;;;;;;5009622;28;20061;-69
2022/10/01 13:18:53;;;;;;;8.73;1.98;;;19.60;99.90;;;;;;5035790;28;20045;-68
2022/10/01 13:21:43;;;;;;;10.82;2.22;;;20.20;99.90;;;;;;5026642;28;20073;-68